sensor_id;sensor_type;location;lat;lon;timestamp;temperature;humidity
19622;DHT22;9958;33.196;-97.114;2022-08-05T00:02:03;37.40;51.40
19622;DHT22;9958;33.196;-97.114;2022-08-05T00:04:31;37.30;51.70
19622;DHT22;9958;33.196;-97.114;2022-08-05T00:06:59;37.20;52.00
19622;DHT22;9958;33.196;-97.114;2022-08-05T00:09:27;37.20;52.70
19622;DHT22;9958;33.196;-97.114;2022-08-05T00:11:56;37.10;53.20
19622;DHT22;9958;33.196;-97.114;2022-08-05T00:14:24;37.00;53.10
19622;DHT22;9958;33.196;-97.114;2022-08-05T00:16:52;36.90;53.50
19622;DHT22;9958;33.196;-97.114;2022-08-05T00:19:22;36.90;53.40
19622;DHT22;9958;33.196;-97.114;2022-08-05T00:21:51;36.80;53.80
19622;DHT22;9958;33.196;-97.114;2022-08-05T00:24:19;36.70;53.70
19622;DHT22;9958;33.196;-97.114;2022-08-05T00:26:48;36.70;54.00
19622;DHT22;9958;33.196;-97.114;2022-08-05T00:29:16;36.60;53.90
19622;DHT22;9958;33.196;-97.114;2022-08-05T00:31:45;36.50;54.20
19622;DHT22;9958;33.196;-97.114;2022-08-05T00:34:13;36.40;54.70
19622;DHT22;9958;33.196;-97.114;2022-08-05T00:36:43;36.40;54.80
19622;DHT22;9958;33.196;-97.114;2022-08-05T00:39:11;36.30;54.80
19622;DHT22;9958;33.196;-97.114;2022-08-05T00:41:43;36.20;55.00
19622;DHT22;9958;33.196;-97.114;2022-08-05T00:44:12;36.10;55.00
19622;DHT22;9958;33.196;-97.114;2022-08-05T00:46:40;36.10;54.80
19622;DHT22;9958;33.196;-97.114;2022-08-05T00:49:08;36.00;54.60
19622;DHT22;9958;33.196;-97.114;2022-08-05T00:51:37;35.90;54.40
19622;DHT22;9958;33.196;-97.114;2022-08-05T00:54:07;35.90;54.50
19622;DHT22;9958;33.196;-97.114;2022-08-05T00:56:35;35.80;54.40
19622;DHT22;9958;33.196;-97.114;2022-08-05T00:59:04;35.80;54.40
19622;DHT22;9958;33.196;-97.114;2022-08-05T01:01:32;35.70;54.50
19622;DHT22;9958;33.196;-97.114;2022-08-05T01:04:00;35.60;54.60
19622;DHT22;9958;33.196;-97.114;2022-08-05T01:06:29;35.60;55.00
19622;DHT22;9958;33.196;-97.114;2022-08-05T01:08:57;35.50;54.90
19622;DHT22;9958;33.196;-97.114;2022-08-05T01:11:31;35.40;55.00
19622;DHT22;9958;33.196;-97.114;2022-08-05T01:14:04;35.30;55.40
19622;DHT22;9958;33.196;-97.114;2022-08-05T01:16:39;35.20;55.00
19622;DHT22;9958;33.196;-97.114;2022-08-05T01:19:24;35.20;55.00
19622;DHT22;9958;33.196;-97.114;2022-08-05T01:22:27;35.10;55.00
19622;DHT22;9958;33.196;-97.114;2022-08-05T01:25:11;35.10;55.60
19622;DHT22;9958;33.196;-97.114;2022-08-05T01:28:08;35.00;55.80
19622;DHT22;9958;33.196;-97.114;2022-08-05T01:30:45;34.90;56.40
19622;DHT22;9958;33.196;-97.114;2022-08-05T01:33:14;34.70;56.50
19622;DHT22;9958;33.196;-97.114;2022-08-05T01:35:45;34.70;56.20
19622;DHT22;9958;33.196;-97.114;2022-08-05T01:38:14;34.60;56.60
19622;DHT22;9958;33.196;-97.114;2022-08-05T01:40:45;34.50;56.50
19622;DHT22;9958;33.196;-97.114;2022-08-05T01:43:16;34.50;56.90
19622;DHT22;9958;33.196;-97.114;2022-08-05T01:45:45;34.40;56.70
19622;DHT22;9958;33.196;-97.114;2022-08-05T01:48:14;34.30;57.60
19622;DHT22;9958;33.196;-97.114;2022-08-05T01:50:43;34.20;57.50
19622;DHT22;9958;33.196;-97.114;2022-08-05T01:53:13;34.10;58.10
19622;DHT22;9958;33.196;-97.114;2022-08-05T01:55:44;34.00;58.00
19622;DHT22;9958;33.196;-97.114;2022-08-05T01:58:15;33.90;57.90
19622;DHT22;9958;33.196;-97.114;2022-08-05T02:00:46;33.80;58.30
19622;DHT22;9958;33.196;-97.114;2022-08-05T02:03:19;33.80;58.70
19622;DHT22;9958;33.196;-97.114;2022-08-05T02:05:48;33.70;58.90
19622;DHT22;9958;33.196;-97.114;2022-08-05T02:08:18;33.50;58.90
19622;DHT22;9958;33.196;-97.114;2022-08-05T02:10:49;33.50;59.60
19622;DHT22;9958;33.196;-97.114;2022-08-05T02:13:24;33.40;59.90
19622;DHT22;9958;33.196;-97.114;2022-08-05T02:16:02;33.30;59.60
19622;DHT22;9958;33.196;-97.114;2022-08-05T02:18:34;33.20;59.90
19622;DHT22;9958;33.196;-97.114;2022-08-05T02:21:07;33.10;60.00
19622;DHT22;9958;33.196;-97.114;2022-08-05T02:23:38;33.00;60.10
19622;DHT22;9958;33.196;-97.114;2022-08-05T02:26:09;32.90;59.90
19622;DHT22;9958;33.196;-97.114;2022-08-05T02:28:41;32.90;59.80
19622;DHT22;9958;33.196;-97.114;2022-08-05T02:31:13;32.80;60.30
19622;DHT22;9958;33.196;-97.114;2022-08-05T02:33:50;32.80;60.40
19622;DHT22;9958;33.196;-97.114;2022-08-05T02:36:20;32.80;60.40
19622;DHT22;9958;33.196;-97.114;2022-08-05T02:38:49;32.80;60.40
19622;DHT22;9958;33.196;-97.114;2022-08-05T02:41:21;32.70;60.30
19622;DHT22;9958;33.196;-97.114;2022-08-05T02:43:51;32.70;60.00
19622;DHT22;9958;33.196;-97.114;2022-08-05T02:46:23;32.60;60.30
19622;DHT22;9958;33.196;-97.114;2022-08-05T02:48:52;32.50;61.00
19622;DHT22;9958;33.196;-97.114;2022-08-05T02:51:21;32.50;61.60
19622;DHT22;9958;33.196;-97.114;2022-08-05T02:53:50;32.40;61.30
19622;DHT22;9958;33.196;-97.114;2022-08-05T02:56:19;32.30;61.60
19622;DHT22;9958;33.196;-97.114;2022-08-05T02:58:50;32.30;61.60
19622;DHT22;9958;33.196;-97.114;2022-08-05T03:01:21;32.30;62.50
19622;DHT22;9958;33.196;-97.114;2022-08-05T03:03:54;32.20;62.60
19622;DHT22;9958;33.196;-97.114;2022-08-05T03:06:23;32.20;62.40
19622;DHT22;9958;33.196;-97.114;2022-08-05T03:08:52;32.10;63.30
19622;DHT22;9958;33.196;-97.114;2022-08-05T03:11:23;32.10;62.60
19622;DHT22;9958;33.196;-97.114;2022-08-05T03:13:53;32.10;63.00
19622;DHT22;9958;33.196;-97.114;2022-08-05T03:16:21;32.10;63.80
19622;DHT22;9958;33.196;-97.114;2022-08-05T03:18:49;32.00;63.90
19622;DHT22;9958;33.196;-97.114;2022-08-05T03:21:18;31.90;63.30
19622;DHT22;9958;33.196;-97.114;2022-08-05T03:23:46;31.90;63.60
19622;DHT22;9958;33.196;-97.114;2022-08-05T03:26:14;31.80;63.80
19622;DHT22;9958;33.196;-97.114;2022-08-05T03:28:43;31.80;64.10
19622;DHT22;9958;33.196;-97.114;2022-08-05T03:31:13;31.70;63.90
19622;DHT22;9958;33.196;-97.114;2022-08-05T03:33:41;31.80;64.00
19622;DHT22;9958;33.196;-97.114;2022-08-05T03:36:10;31.70;63.70
19622;DHT22;9958;33.196;-97.114;2022-08-05T03:38:40;31.70;64.30
19622;DHT22;9958;33.196;-97.114;2022-08-05T03:41:08;31.60;65.00
19622;DHT22;9958;33.196;-97.114;2022-08-05T03:43:36;31.70;64.40
19622;DHT22;9958;33.196;-97.114;2022-08-05T03:46:05;31.70;64.90
19622;DHT22;9958;33.196;-97.114;2022-08-05T03:48:34;31.70;65.40
19622;DHT22;9958;33.196;-97.114;2022-08-05T03:51:11;31.70;65.20
19622;DHT22;9958;33.196;-97.114;2022-08-05T03:53:43;31.60;64.50
19622;DHT22;9958;33.196;-97.114;2022-08-05T03:56:20;31.60;64.60
19622;DHT22;9958;33.196;-97.114;2022-08-05T03:58:54;31.60;64.60
19622;DHT22;9958;33.196;-97.114;2022-08-05T04:01:25;31.60;64.80
19622;DHT22;9958;33.196;-97.114;2022-08-05T04:03:58;31.50;65.40
19622;DHT22;9958;33.196;-97.114;2022-08-05T04:06:26;31.50;65.40
19622;DHT22;9958;33.196;-97.114;2022-08-05T04:08:55;31.40;65.50
19622;DHT22;9958;33.196;-97.114;2022-08-05T04:11:24;31.40;65.60
19622;DHT22;9958;33.196;-97.114;2022-08-05T04:13:54;31.30;66.20
19622;DHT22;9958;33.196;-97.114;2022-08-05T04:16:22;31.20;66.90
19622;DHT22;9958;33.196;-97.114;2022-08-05T04:18:51;31.20;67.20
19622;DHT22;9958;33.196;-97.114;2022-08-05T04:21:21;31.20;67.50
19622;DHT22;9958;33.196;-97.114;2022-08-05T04:23:49;31.10;67.50
19622;DHT22;9958;33.196;-97.114;2022-08-05T04:26:17;31.10;68.20
19622;DHT22;9958;33.196;-97.114;2022-08-05T04:28:46;31.10;69.10
19622;DHT22;9958;33.196;-97.114;2022-08-05T04:31:14;31.10;69.10
19622;DHT22;9958;33.196;-97.114;2022-08-05T04:33:42;31.20;70.30
19622;DHT22;9958;33.196;-97.114;2022-08-05T04:36:10;31.20;70.50
19622;DHT22;9958;33.196;-97.114;2022-08-05T04:38:42;31.10;70.80
19622;DHT22;9958;33.196;-97.114;2022-08-05T04:41:10;31.10;71.60
19622;DHT22;9958;33.196;-97.114;2022-08-05T04:43:39;31.00;71.50
19622;DHT22;9958;33.196;-97.114;2022-08-05T04:46:07;31.10;73.60
19622;DHT22;9958;33.196;-97.114;2022-08-05T04:48:35;31.10;74.30
19622;DHT22;9958;33.196;-97.114;2022-08-05T04:51:04;31.10;74.40
19622;DHT22;9958;33.196;-97.114;2022-08-05T04:53:32;31.00;75.30
19622;DHT22;9958;33.196;-97.114;2022-08-05T04:56:02;31.10;76.50
19622;DHT22;9958;33.196;-97.114;2022-08-05T04:58:30;31.10;76.30
19622;DHT22;9958;33.196;-97.114;2022-08-05T05:00:58;31.10;76.70
19622;DHT22;9958;33.196;-97.114;2022-08-05T05:03:27;31.00;77.20
19622;DHT22;9958;33.196;-97.114;2022-08-05T05:05:55;31.10;77.30
19622;DHT22;9958;33.196;-97.114;2022-08-05T05:08:23;31.10;77.20
19622;DHT22;9958;33.196;-97.114;2022-08-05T05:10:51;31.00;77.60
19622;DHT22;9958;33.196;-97.114;2022-08-05T05:13:22;31.00;77.60
19622;DHT22;9958;33.196;-97.114;2022-08-05T05:15:51;31.00;78.60
19622;DHT22;9958;33.196;-97.114;2022-08-05T05:18:19;31.00;78.20
19622;DHT22;9958;33.196;-97.114;2022-08-05T05:20:47;31.00;78.20
19622;DHT22;9958;33.196;-97.114;2022-08-05T05:23:16;31.00;78.50
19622;DHT22;9958;33.196;-97.114;2022-08-05T05:25:44;30.90;78.30
19622;DHT22;9958;33.196;-97.114;2022-08-05T05:28:12;31.00;78.60
19622;DHT22;9958;33.196;-97.114;2022-08-05T05:30:42;30.90;77.80
19622;DHT22;9958;33.196;-97.114;2022-08-05T05:33:10;30.90;78.50
19622;DHT22;9958;33.196;-97.114;2022-08-05T05:35:39;30.90;77.80
19622;DHT22;9958;33.196;-97.114;2022-08-05T05:38:07;30.90;79.20
19622;DHT22;9958;33.196;-97.114;2022-08-05T05:40:35;30.80;77.80
19622;DHT22;9958;33.196;-97.114;2022-08-05T05:43:04;30.80;78.30
19622;DHT22;9958;33.196;-97.114;2022-08-05T05:45:32;30.70;77.60
19622;DHT22;9958;33.196;-97.114;2022-08-05T05:48:02;30.70;78.20
19622;DHT22;9958;33.196;-97.114;2022-08-05T05:50:33;30.70;77.40
19622;DHT22;9958;33.196;-97.114;2022-08-05T05:53:01;30.70;77.80
19622;DHT22;9958;33.196;-97.114;2022-08-05T05:55:30;30.80;76.60
19622;DHT22;9958;33.196;-97.114;2022-08-05T05:57:58;30.80;77.30
19622;DHT22;9958;33.196;-97.114;2022-08-05T06:00:26;30.70;77.30
19622;DHT22;9958;33.196;-97.114;2022-08-05T06:02:54;30.70;77.40
19622;DHT22;9958;33.196;-97.114;2022-08-05T06:05:24;30.70;76.00
19622;DHT22;9958;33.196;-97.114;2022-08-05T06:07:52;30.70;76.10
19622;DHT22;9958;33.196;-97.114;2022-08-05T06:10:21;30.70;75.90
19622;DHT22;9958;33.196;-97.114;2022-08-05T06:12:49;30.70;75.10
19622;DHT22;9958;33.196;-97.114;2022-08-05T06:15:17;30.70;74.30
19622;DHT22;9958;33.196;-97.114;2022-08-05T06:17:45;30.70;74.80
19622;DHT22;9958;33.196;-97.114;2022-08-05T06:20:14;30.60;75.70
19622;DHT22;9958;33.196;-97.114;2022-08-05T06:22:43;30.70;74.10
19622;DHT22;9958;33.196;-97.114;2022-08-05T06:25:12;30.60;74.10
19622;DHT22;9958;33.196;-97.114;2022-08-05T06:27:40;30.60;75.10
19622;DHT22;9958;33.196;-97.114;2022-08-05T06:30:09;30.50;74.90
19622;DHT22;9958;33.196;-97.114;2022-08-05T06:32:41;30.40;75.10
19622;DHT22;9958;33.196;-97.114;2022-08-05T06:35:09;30.40;75.60
19622;DHT22;9958;33.196;-97.114;2022-08-05T06:37:38;30.30;75.20
19622;DHT22;9958;33.196;-97.114;2022-08-05T06:40:09;30.30;75.50
19622;DHT22;9958;33.196;-97.114;2022-08-05T06:42:37;30.30;76.30
19622;DHT22;9958;33.196;-97.114;2022-08-05T06:45:07;30.20;75.40
19622;DHT22;9958;33.196;-97.114;2022-08-05T06:47:35;30.20;75.30
19622;DHT22;9958;33.196;-97.114;2022-08-05T06:50:04;30.20;76.30
19622;DHT22;9958;33.196;-97.114;2022-08-05T06:52:32;30.20;75.50
19622;DHT22;9958;33.196;-97.114;2022-08-05T06:55:00;30.20;76.20
19622;DHT22;9958;33.196;-97.114;2022-08-05T06:57:30;30.10;76.10
19622;DHT22;9958;33.196;-97.114;2022-08-05T06:59:58;30.10;75.90
19622;DHT22;9958;33.196;-97.114;2022-08-05T07:02:28;30.10;76.30
19622;DHT22;9958;33.196;-97.114;2022-08-05T07:04:57;30.10;75.70
19622;DHT22;9958;33.196;-97.114;2022-08-05T07:07:25;30.10;75.90
19622;DHT22;9958;33.196;-97.114;2022-08-05T07:09:53;30.10;75.60
19622;DHT22;9958;33.196;-97.114;2022-08-05T07:12:21;30.10;76.00
19622;DHT22;9958;33.196;-97.114;2022-08-05T07:15:09;30.20;74.90
19622;DHT22;9958;33.196;-97.114;2022-08-05T07:17:54;30.10;75.60
19622;DHT22;9958;33.196;-97.114;2022-08-05T07:20:22;30.10;74.60
19622;DHT22;9958;33.196;-97.114;2022-08-05T07:22:50;30.20;74.50
19622;DHT22;9958;33.196;-97.114;2022-08-05T07:25:18;30.20;74.90
19622;DHT22;9958;33.196;-97.114;2022-08-05T07:27:47;30.20;74.40
19622;DHT22;9958;33.196;-97.114;2022-08-05T07:30:17;30.20;74.30
19622;DHT22;9958;33.196;-97.114;2022-08-05T07:32:45;30.20;74.80
19622;DHT22;9958;33.196;-97.114;2022-08-05T07:35:14;30.30;74.70
19622;DHT22;9958;33.196;-97.114;2022-08-05T07:37:42;30.20;74.90
19622;DHT22;9958;33.196;-97.114;2022-08-05T07:40:11;30.30;75.20
19622;DHT22;9958;33.196;-97.114;2022-08-05T07:42:39;30.30;74.00
19622;DHT22;9958;33.196;-97.114;2022-08-05T07:45:08;30.30;74.60
19622;DHT22;9958;33.196;-97.114;2022-08-05T07:47:39;30.30;74.50
19622;DHT22;9958;33.196;-97.114;2022-08-05T07:50:08;30.40;74.50
19622;DHT22;9958;33.196;-97.114;2022-08-05T07:52:38;30.30;74.30
19622;DHT22;9958;33.196;-97.114;2022-08-05T07:55:07;30.30;73.80
19622;DHT22;9958;33.196;-97.114;2022-08-05T07:57:35;30.40;73.90
19622;DHT22;9958;33.196;-97.114;2022-08-05T08:00:06;30.40;73.90
19622;DHT22;9958;33.196;-97.114;2022-08-05T08:02:35;30.40;74.00
19622;DHT22;9958;33.196;-97.114;2022-08-05T08:05:05;30.30;73.90
19622;DHT22;9958;33.196;-97.114;2022-08-05T08:07:34;30.40;74.10
19622;DHT22;9958;33.196;-97.114;2022-08-05T08:10:02;30.30;74.20
19622;DHT22;9958;33.196;-97.114;2022-08-05T08:12:31;30.30;74.60
19622;DHT22;9958;33.196;-97.114;2022-08-05T08:14:59;30.30;75.10
19622;DHT22;9958;33.196;-97.114;2022-08-05T08:17:28;30.20;74.90
19622;DHT22;9958;33.196;-97.114;2022-08-05T08:19:56;30.20;75.20
19622;DHT22;9958;33.196;-97.114;2022-08-05T08:22:26;30.10;74.90
19622;DHT22;9958;33.196;-97.114;2022-08-05T08:24:54;30.10;75.60
19622;DHT22;9958;33.196;-97.114;2022-08-05T08:27:23;30.00;75.90
19622;DHT22;9958;33.196;-97.114;2022-08-05T08:29:51;30.00;75.60
19622;DHT22;9958;33.196;-97.114;2022-08-05T08:32:19;30.00;76.10
19622;DHT22;9958;33.196;-97.114;2022-08-05T08:34:48;29.90;76.40
19622;DHT22;9958;33.196;-97.114;2022-08-05T08:37:16;29.90;76.70
19622;DHT22;9958;33.196;-97.114;2022-08-05T08:39:46;29.80;76.90
19622;DHT22;9958;33.196;-97.114;2022-08-05T08:42:14;29.80;77.30
19622;DHT22;9958;33.196;-97.114;2022-08-05T08:44:43;29.80;76.90
19622;DHT22;9958;33.196;-97.114;2022-08-05T08:47:13;29.70;77.80
19622;DHT22;9958;33.196;-97.114;2022-08-05T08:49:44;29.70;78.90
19622;DHT22;9958;33.196;-97.114;2022-08-05T08:52:18;29.60;78.60
19622;DHT22;9958;33.196;-97.114;2022-08-05T08:54:51;29.60;80.20
19622;DHT22;9958;33.196;-97.114;2022-08-05T08:57:21;29.50;82.10
19622;DHT22;9958;33.196;-97.114;2022-08-05T08:59:50;29.50;81.70
19622;DHT22;9958;33.196;-97.114;2022-08-05T09:02:19;29.40;80.90
19622;DHT22;9958;33.196;-97.114;2022-08-05T09:04:47;29.40;80.20
19622;DHT22;9958;33.196;-97.114;2022-08-05T09:07:16;29.30;81.40
19622;DHT22;9958;33.196;-97.114;2022-08-05T09:09:44;29.30;81.80
19622;DHT22;9958;33.196;-97.114;2022-08-05T09:12:14;29.20;82.30
19622;DHT22;9958;33.196;-97.114;2022-08-05T09:14:43;29.20;85.20
19622;DHT22;9958;33.196;-97.114;2022-08-05T09:17:11;29.20;87.00
19622;DHT22;9958;33.196;-97.114;2022-08-05T09:19:40;29.10;85.10
19622;DHT22;9958;33.196;-97.114;2022-08-05T09:22:08;29.00;84.30
19622;DHT22;9958;33.196;-97.114;2022-08-05T09:24:36;29.00;84.40
19622;DHT22;9958;33.196;-97.114;2022-08-05T09:27:07;28.90;84.10
19622;DHT22;9958;33.196;-97.114;2022-08-05T09:29:41;28.80;83.90
19622;DHT22;9958;33.196;-97.114;2022-08-05T09:32:11;28.80;85.10
19622;DHT22;9958;33.196;-97.114;2022-08-05T09:34:47;28.80;84.70
19622;DHT22;9958;33.196;-97.114;2022-08-05T09:37:20;28.80;85.30
19622;DHT22;9958;33.196;-97.114;2022-08-05T09:39:48;28.80;85.10
19622;DHT22;9958;33.196;-97.114;2022-08-05T09:42:17;28.70;87.20
19622;DHT22;9958;33.196;-97.114;2022-08-05T09:44:48;28.70;88.00
19622;DHT22;9958;33.196;-97.114;2022-08-05T09:47:18;28.60;86.90
19622;DHT22;9958;33.196;-97.114;2022-08-05T09:49:48;28.60;89.30
19622;DHT22;9958;33.196;-97.114;2022-08-05T09:52:20;28.60;88.50
19622;DHT22;9958;33.196;-97.114;2022-08-05T09:54:57;28.50;87.20
19622;DHT22;9958;33.196;-97.114;2022-08-05T09:57:35;28.50;86.30
19622;DHT22;9958;33.196;-97.114;2022-08-05T10:00:12;28.50;86.80
19622;DHT22;9958;33.196;-97.114;2022-08-05T10:02:42;28.50;86.60
19622;DHT22;9958;33.196;-97.114;2022-08-05T10:05:12;28.50;87.30
19622;DHT22;9958;33.196;-97.114;2022-08-05T10:07:52;28.50;86.70
19622;DHT22;9958;33.196;-97.114;2022-08-05T10:10:23;28.50;87.10
19622;DHT22;9958;33.196;-97.114;2022-08-05T10:12:53;28.40;87.00
19622;DHT22;9958;33.196;-97.114;2022-08-05T10:15:27;28.50;88.20
19622;DHT22;9958;33.196;-97.114;2022-08-05T10:18:07;28.40;88.00
19622;DHT22;9958;33.196;-97.114;2022-08-05T10:20:38;28.40;87.70
19622;DHT22;9958;33.196;-97.114;2022-08-05T10:23:09;28.40;87.60
19622;DHT22;9958;33.196;-97.114;2022-08-05T10:25:38;28.30;88.70
19622;DHT22;9958;33.196;-97.114;2022-08-05T10:28:07;28.30;88.90
19622;DHT22;9958;33.196;-97.114;2022-08-05T10:30:37;28.30;89.00
19622;DHT22;9958;33.196;-97.114;2022-08-05T10:33:06;28.30;89.30
19622;DHT22;9958;33.196;-97.114;2022-08-05T10:35:35;28.20;90.30
19622;DHT22;9958;33.196;-97.114;2022-08-05T10:38:05;28.20;90.00
19622;DHT22;9958;33.196;-97.114;2022-08-05T10:40:37;28.20;90.60
19622;DHT22;9958;33.196;-97.114;2022-08-05T10:43:21;28.20;90.70
19622;DHT22;9958;33.196;-97.114;2022-08-05T10:46:00;28.10;90.50
19622;DHT22;9958;33.196;-97.114;2022-08-05T10:48:34;28.10;90.50
19622;DHT22;9958;33.196;-97.114;2022-08-05T10:51:06;28.10;90.90
19622;DHT22;9958;33.196;-97.114;2022-08-05T10:53:42;28.10;91.40
19622;DHT22;9958;33.196;-97.114;2022-08-05T10:56:13;28.10;91.50
19622;DHT22;9958;33.196;-97.114;2022-08-05T10:59:00;28.20;91.70
19622;DHT22;9958;33.196;-97.114;2022-08-05T11:01:33;28.20;91.10
19622;DHT22;9958;33.196;-97.114;2022-08-05T11:04:07;28.20;91.40
19622;DHT22;9958;33.196;-97.114;2022-08-05T11:07:03;28.20;91.90
19622;DHT22;9958;33.196;-97.114;2022-08-05T11:09:38;28.20;92.20
19622;DHT22;9958;33.196;-97.114;2022-08-05T11:15:15;28.20;91.50
19622;DHT22;9958;33.196;-97.114;2022-08-05T11:17:45;28.20;91.60
19622;DHT22;9958;33.196;-97.114;2022-08-05T11:20:34;28.20;91.50
19622;DHT22;9958;33.196;-97.114;2022-08-05T11:26:10;28.10;91.20
19622;DHT22;9958;33.196;-97.114;2022-08-05T11:28:41;28.10;91.30
19622;DHT22;9958;33.196;-97.114;2022-08-05T11:31:27;28.20;91.40
19622;DHT22;9958;33.196;-97.114;2022-08-05T11:34:06;28.10;92.70
19622;DHT22;9958;33.196;-97.114;2022-08-05T11:36:46;28.10;91.70
19622;DHT22;9958;33.196;-97.114;2022-08-05T11:42:00;28.10;91.80
19622;DHT22;9958;33.196;-97.114;2022-08-05T11:44:36;28.10;93.00
19622;DHT22;9958;33.196;-97.114;2022-08-05T11:47:05;28.10;92.90
19622;DHT22;9958;33.196;-97.114;2022-08-05T11:49:35;28.10;93.20
19622;DHT22;9958;33.196;-97.114;2022-08-05T11:52:04;28.10;92.90
19622;DHT22;9958;33.196;-97.114;2022-08-05T11:54:33;28.10;93.60
19622;DHT22;9958;33.196;-97.114;2022-08-05T11:57:04;28.10;92.90
19622;DHT22;9958;33.196;-97.114;2022-08-05T11:59:33;28.10;93.00
19622;DHT22;9958;33.196;-97.114;2022-08-05T12:02:03;28.10;93.50
19622;DHT22;9958;33.196;-97.114;2022-08-05T12:04:39;28.10;93.50
19622;DHT22;9958;33.196;-97.114;2022-08-05T12:07:09;28.20;93.40
19622;DHT22;9958;33.196;-97.114;2022-08-05T12:09:39;28.20;93.20
19622;DHT22;9958;33.196;-97.114;2022-08-05T12:12:08;28.20;92.50
19622;DHT22;9958;33.196;-97.114;2022-08-05T12:14:38;28.30;92.90
19622;DHT22;9958;33.196;-97.114;2022-08-05T12:17:08;28.30;92.70
19622;DHT22;9958;33.196;-97.114;2022-08-05T12:19:46;28.40;92.50
19622;DHT22;9958;33.196;-97.114;2022-08-05T12:22:16;28.50;92.50
19622;DHT22;9958;33.196;-97.114;2022-08-05T12:24:45;28.50;92.20
19622;DHT22;9958;33.196;-97.114;2022-08-05T12:27:21;28.50;92.40
19622;DHT22;9958;33.196;-97.114;2022-08-05T12:29:58;28.60;91.90
19622;DHT22;9958;33.196;-97.114;2022-08-05T12:32:27;28.60;92.00
19622;DHT22;9958;33.196;-97.114;2022-08-05T12:34:57;28.70;91.80
19622;DHT22;9958;33.196;-97.114;2022-08-05T12:37:25;28.70;91.70
19622;DHT22;9958;33.196;-97.114;2022-08-05T12:39:56;28.80;91.80
19622;DHT22;9958;33.196;-97.114;2022-08-05T12:42:28;28.80;91.60
19622;DHT22;9958;33.196;-97.114;2022-08-05T12:45:01;28.90;91.70
19622;DHT22;9958;33.196;-97.114;2022-08-05T12:47:30;29.00;91.10
19622;DHT22;9958;33.196;-97.114;2022-08-05T12:50:11;29.10;90.60
19622;DHT22;9958;33.196;-97.114;2022-08-05T12:52:40;29.50;90.00
19622;DHT22;9958;33.196;-97.114;2022-08-05T12:55:20;30.00;87.70
19622;DHT22;9958;33.196;-97.114;2022-08-05T12:57:49;30.80;83.80
19622;DHT22;9958;33.196;-97.114;2022-08-05T13:00:21;31.40;82.60
19622;DHT22;9958;33.196;-97.114;2022-08-05T13:02:51;32.10;80.70
19622;DHT22;9958;33.196;-97.114;2022-08-05T13:05:23;32.60;77.80
19622;DHT22;9958;33.196;-97.114;2022-08-05T13:07:56;33.10;76.40
19622;DHT22;9958;33.196;-97.114;2022-08-05T13:10:25;33.40;74.00
19622;DHT22;9958;33.196;-97.114;2022-08-05T13:12:55;33.70;73.70
19622;DHT22;9958;33.196;-97.114;2022-08-05T13:15:28;34.00;72.60
19622;DHT22;9958;33.196;-97.114;2022-08-05T13:17:57;34.20;72.40
19622;DHT22;9958;33.196;-97.114;2022-08-05T13:20:34;34.10;72.40
19622;DHT22;9958;33.196;-97.114;2022-08-05T13:23:02;33.90;72.60
19622;DHT22;9958;33.196;-97.114;2022-08-05T13:25:31;33.60;73.60
19622;DHT22;9958;33.196;-97.114;2022-08-05T13:28:00;33.60;73.70
19622;DHT22;9958;33.196;-97.114;2022-08-05T13:30:29;33.40;74.60
19622;DHT22;9958;33.196;-97.114;2022-08-05T13:32:58;33.10;75.90
19622;DHT22;9958;33.196;-97.114;2022-08-05T13:35:26;32.90;76.30
19622;DHT22;9958;33.196;-97.114;2022-08-05T13:37:56;32.80;77.30
19622;DHT22;9958;33.196;-97.114;2022-08-05T13:40:24;32.80;76.30
19622;DHT22;9958;33.196;-97.114;2022-08-05T13:42:52;32.40;76.20
19622;DHT22;9958;33.196;-97.114;2022-08-05T13:45:21;32.20;78.30
19622;DHT22;9958;33.196;-97.114;2022-08-05T13:47:49;32.20;78.30
19622;DHT22;9958;33.196;-97.114;2022-08-05T13:50:17;32.20;78.50
19622;DHT22;9958;33.196;-97.114;2022-08-05T13:52:45;32.00;79.30
19622;DHT22;9958;33.196;-97.114;2022-08-05T13:55:15;32.10;79.90
19622;DHT22;9958;33.196;-97.114;2022-08-05T13:57:43;32.00;83.80
19622;DHT22;9958;33.196;-97.114;2022-08-05T14:00:12;32.10;82.80
19622;DHT22;9958;33.196;-97.114;2022-08-05T14:02:41;32.20;80.80
19622;DHT22;9958;33.196;-97.114;2022-08-05T14:05:09;32.00;83.30
19622;DHT22;9958;33.196;-97.114;2022-08-05T14:07:38;32.00;82.30
19622;DHT22;9958;33.196;-97.114;2022-08-05T14:10:08;32.10;81.80
19622;DHT22;9958;33.196;-97.114;2022-08-05T14:12:38;32.10;82.10
19622;DHT22;9958;33.196;-97.114;2022-08-05T14:15:07;32.30;82.00
19622;DHT22;9958;33.196;-97.114;2022-08-05T14:17:36;32.60;83.90
19622;DHT22;9958;33.196;-97.114;2022-08-05T14:20:05;32.70;82.70
19622;DHT22;9958;33.196;-97.114;2022-08-05T14:22:33;32.80;80.00
19622;DHT22;9958;33.196;-97.114;2022-08-05T14:25:02;32.80;79.40
19622;DHT22;9958;33.196;-97.114;2022-08-05T14:27:30;33.10;79.40
19622;DHT22;9958;33.196;-97.114;2022-08-05T14:30:00;33.20;78.60
19622;DHT22;9958;33.196;-97.114;2022-08-05T14:32:29;33.50;77.50
19622;DHT22;9958;33.196;-97.114;2022-08-05T14:34:57;33.60;77.70
19622;DHT22;9958;33.196;-97.114;2022-08-05T14:37:25;33.80;78.30
19622;DHT22;9958;33.196;-97.114;2022-08-05T14:39:54;33.70;76.20
19622;DHT22;9958;33.196;-97.114;2022-08-05T14:42:22;33.80;76.10
19622;DHT22;9958;33.196;-97.114;2022-08-05T14:44:51;33.60;75.70
19622;DHT22;9958;33.196;-97.114;2022-08-05T14:47:21;33.90;76.70
19622;DHT22;9958;33.196;-97.114;2022-08-05T14:49:49;34.20;76.30
19622;DHT22;9958;33.196;-97.114;2022-08-05T14:52:17;34.10;74.90
19622;DHT22;9958;33.196;-97.114;2022-08-05T14:54:45;34.30;74.20
19622;DHT22;9958;33.196;-97.114;2022-08-05T14:57:14;34.30;75.10
19622;DHT22;9958;33.196;-97.114;2022-08-05T14:59:42;34.50;73.80
19622;DHT22;9958;33.196;-97.114;2022-08-05T15:02:10;34.50;72.40
19622;DHT22;9958;33.196;-97.114;2022-08-05T15:04:40;34.60;72.30
19622;DHT22;9958;33.196;-97.114;2022-08-05T15:07:09;34.80;72.60
19622;DHT22;9958;33.196;-97.114;2022-08-05T15:09:37;34.80;72.10
19622;DHT22;9958;33.196;-97.114;2022-08-05T15:12:06;35.00;72.10
19622;DHT22;9958;33.196;-97.114;2022-08-05T15:14:34;35.00;70.20
19622;DHT22;9958;33.196;-97.114;2022-08-05T15:17:02;35.20;70.90
19622;DHT22;9958;33.196;-97.114;2022-08-05T15:19:31;35.30;70.10
19622;DHT22;9958;33.196;-97.114;2022-08-05T15:22:00;35.40;70.40
19622;DHT22;9958;33.196;-97.114;2022-08-05T15:24:29;35.50;69.00
19622;DHT22;9958;33.196;-97.114;2022-08-05T15:26:57;35.70;69.20
19622;DHT22;9958;33.196;-97.114;2022-08-05T15:29:25;35.80;69.10
19622;DHT22;9958;33.196;-97.114;2022-08-05T15:31:53;35.80;67.50
19622;DHT22;9958;33.196;-97.114;2022-08-05T15:34:22;35.70;67.90
19622;DHT22;9958;33.196;-97.114;2022-08-05T15:36:50;35.80;66.90
19622;DHT22;9958;33.196;-97.114;2022-08-05T15:39:20;35.90;66.10
19622;DHT22;9958;33.196;-97.114;2022-08-05T15:41:48;36.10;65.50
19622;DHT22;9958;33.196;-97.114;2022-08-05T15:44:16;36.20;63.70